Latest Weather Observations for Moruya Airport

IDN60801

Issued at 8:05 pm EST Monday 28 July 2014 (issued every 30 minutes, with the page automatically refreshed every 10 minutes)

About weather observations | Map of weather stations | Latest weather observations for NSW | Other Formats
Station Details ID: 069148 Name: MORUYA AIRPORT AWS Lat: -35.90 Lon: 150.14 Height: 4.0 m
Data from the previous 72 hours. | See also: Recent months for locations in New South Wales
Date/Time
EST
Temp
°C
App
Temp
°C
Dew
Point
Rel
Hum
%
Delta-T
°C
Wind Press
QNH
hPa
Press
MSL
hPa
Rain
since 9 am
mm
Dir
 
Spd
km/h
Gust
km/h
Spd
kts
Gust
kts
28/08:00pm 14.7 11.7 4.1 49 4.9 NW 9 17 5 9 1016.7 1016.7 0.0
28/07:30pm 15.1 12.1 4.2 48 5.0 NNW 9 17 5 9 1016.5 - 0.0
28/07:00pm 15.3 11.6 4.7 49 5.0 NNW 13 19 7 10 1016.3 1016.3 0.0
28/06:30pm 14.7 11.7 5.8 55 4.2 NNW 11 20 6 11 1015.8 - 0.0
28/06:00pm 12.2 10.8 8.9 80 1.6 NNW 6 7 3 4 1015.8 1015.8 0.0
28/05:30pm 12.3 11.0 9.3 82 1.5 N 6 9 3 5 1015.5 - 0.0
28/05:00pm 13.8 12.3 9.3 74 2.3 N 7 9 4 5 1015.6 1015.6 0.0
28/04:30pm 15.9 15.7 8.9 63 3.6 CALM 0 6 0 3 1015.6 - 0.0
28/04:00pm 17.6 15.6 6.2 47 5.6 N 6 9 3 5 1015.5 1015.5 0.0
28/03:30pm 19.1 17.2 6.9 45 6.1 NNW 6 9 3 5 1015.5 - 0.0
28/03:00pm 17.8 14.9 8.1 53 4.9 ENE 13 17 7 9 1015.6 1015.6 0.0
28/02:30pm 17.9 15.5 10.0 60 4.2 NE 13 19 7 10 1015.6 - 0.0
28/02:00pm 17.5 14.4 8.9 57 4.4 NE 15 19 8 10 1015.9 1015.9 0.0
28/01:30pm 17.4 14.2 8.3 55 4.7 ENE 15 19 8 10 1016.0 - 0.0
28/01:00pm 16.8 13.9 8.2 57 4.4 ENE 13 15 7 8 1016.6 1016.6 0.0
28/12:30pm 16.2 13.7 8.4 60 4.0 ENE 11 13 6 7 1017.4 - 0.0
28/12:00pm 16.5 13.8 7.4 55 4.5 ENE 11 13 6 7 1017.8 1017.8 0.0
28/11:30am 16.7 14.3 7.1 53 4.8 NE 9 13 5 7 1018.5 - 0.0
28/11:00am 15.5 12.7 5.1 50 4.9 ENE 9 13 5 7 1018.7 1018.7 0.0
28/10:30am 15.5 13.4 6.0 53 4.6 E 6 11 3 6 1018.9 - 0.0
28/10:00am 14.9 13.1 5.4 53 4.5 N 4 7 2 4 1019.1 1019.1 0.0
28/09:30am 13.0 10.7 4.7 57 3.8 WNW 6 9 3 5 1019.3 - 0.0
28/09:00am 10.8 9.8 5.8 71 2.3 CALM 0 6 0 3 1019.4 1019.4 0.0
28/08:30am 8.2 5.6 6.0 86 1.0 SW 9 11 5 6 1019.4 - 0.0
28/08:00am 5.7 3.6 5.6 99 0.0 WSW 6 13 3 7 1019.5 1019.5 0.0
28/07:30am 2.2 0.2 2.1 99 0.0 SW 2 7 1 4 1019.4 - 0.0
28/07:00am 0.4 -2.7 0.3 99 0.0 W 6 11 3 6 1019.4 1019.4 0.0
28/06:30am 2.1 0.4 2.0 99 0.0 CALM 0 0 0 0 1019.1 - 0.0
28/06:00am 2.4 -0.6 2.1 98 0.1 N 7 9 4 5 1018.9 1018.9 0.0
28/05:30am 3.1 0.4 2.7 97 0.2 W 6 9 3 5 1018.6 - 0.0
28/05:00am 4.2 1.9 3.0 92 0.5 SSW 4 7 2 4 1018.8 1018.8 0.0
28/04:30am 5.6 3.0 4.2 91 0.6 WNW 7 15 4 8 1019.0 - 0.0
28/04:00am 6.6 3.9 5.4 92 0.5 W 9 15 5 8 1019.1 1019.1 0.0
28/03:30am 5.9 3.6 5.5 97 0.2 W 7 11 4 6 1019.0 - 0.0
28/03:00am 4.7 1.8 4.6 99 0.0 W 9 17 5 9 1019.4 1019.4 0.0
28/02:48am 3.8 1.7 3.7 99 0.0 W 4 7 2 4 1019.1 - 0.0
28/02:30am 3.4 2.0 3.3 99 0.0 CALM 0 0 0 0 1018.9 - 0.0
28/02:10am 3.7 1.5 3.6 99 0.0 W 4 9 2 5 1019.3 - 0.0
28/02:00am 4.1 1.5 4.0 99 0.0 WSW 7 9 4 5 1019.1 1019.1 0.0
28/01:30am 4.8 2.3 4.7 99 0.0 WNW 7 9 4 5 1019.4 - 0.0
28/01:00am 5.3 2.9 5.2 99 0.0 W 7 7 4 4 1019.8 1019.8 0.0
28/12:30am 6.1 4.0 6.0 99 0.0 W 6 7 3 4 1020.0 - 0.0
28/12:00am 6.6 4.5 6.5 99 0.0 W 7 9 4 5 1020.5 1020.5 0.0
 
Date/Time
EST
Temp
°C
App
Temp
°C
Dew
Point
Rel
Hum
%
Delta-T
°C
Wind Press
QNH
hPa
Press
MSL
hPa
Rain
since 9 am
mm
Dir
 
Spd
km/h
Gust
km/h
Spd
kts
Gust
kts
27/11:30pm 6.7 4.7 6.4 98 0.1 W 6 7 3 4 1020.9 - 0.0
27/11:00pm 7.4 6.3 7.1 98 0.1 WSW 2 7 1 4 1020.7 1020.7 0.0
27/10:30pm 7.4 5.5 6.8 96 0.3 WNW 6 7 3 4 1021.1 - 0.0
27/10:00pm 7.8 6.7 6.9 94 0.4 W 2 7 1 4 1021.2 1021.2 0.0
27/09:30pm 8.9 7.6 7.8 93 0.5 SW 4 7 2 4 1020.9 - 0.0
27/09:00pm 9.5 8.0 8.6 94 0.4 WSW 6 9 3 5 1020.9 1020.9 0.0
27/08:30pm 8.6 7.2 7.2 91 0.7 N 4 9 2 5 1020.8 - 0.0
27/08:00pm 8.6 6.9 7.5 93 0.5 NW 6 9 3 5 1021.1 1021.1 0.0
27/07:30pm 9.1 7.5 7.9 92 0.6 N 6 9 3 5 1021.1 - 0.0
27/07:00pm 8.9 7.2 7.7 92 0.6 N 6 9 3 5 1021.2 1021.2 0.0
27/06:30pm 9.3 7.4 7.6 89 0.8 NW 7 9 4 5 1021.5 - 0.0
27/06:00pm 10.0 8.4 7.9 87 1.0 NW 6 7 3 4 1021.2 1021.2 0.0
27/05:30pm 11.2 9.4 7.3 77 1.9 N 6 9 3 5 1020.8 - 0.0
27/05:00pm 14.5 11.7 7.1 61 3.6 NE 11 11 6 6 1020.7 1020.7 0.0
27/04:30pm 16.3 13.6 7.3 55 4.5 NE 11 13 6 7 1020.7 - 0.0
27/04:00pm 16.7 13.3 7.6 55 4.6 ENE 15 17 8 9 1020.5 1020.5 0.0
27/03:30pm 17.2 13.6 6.7 50 5.2 ENE 15 17 8 9 1020.4 - 0.0
27/03:00pm 17.5 13.8 6.4 48 5.4 ENE 15 17 8 9 1020.6 1020.6 0.0
27/02:30pm 18.1 14.6 7.2 49 5.5 ENE 15 17 8 9 1020.5 - 0.0
27/02:00pm 18.0 14.3 6.5 47 5.7 ENE 15 19 8 10 1020.5 1020.5 0.0
27/01:30pm 17.9 14.5 6.1 46 5.8 ENE 13 15 7 8 1020.8 - 0.0
27/01:00pm 17.9 14.5 6.1 46 5.8 E 13 15 7 8 1021.2 1021.2 0.0
27/12:30pm 17.8 14.5 6.3 47 5.7 E 13 15 7 8 1021.6 - 0.0
27/12:00pm 18.1 15.6 6.6 47 5.7 SE 9 15 5 8 1022.0 1022.0 0.0
27/11:30am 18.2 15.8 5.4 43 6.2 WSW 7 9 4 5 1022.6 - 0.0
27/11:00am 17.4 14.7 5.7 46 5.7 WSW 9 11 5 6 1023.1 1023.1 0.0
27/10:30am 17.1 15.2 6.9 51 5.1 W 6 11 3 6 1023.5 - 0.0
27/10:00am 14.4 11.9 6.7 60 3.7 SW 9 13 5 7 1023.9 1023.9 0.0
27/09:30am 12.8 9.8 6.2 64 3.1 SW 11 15 6 8 1024.0 - 0.0
27/09:00am 11.7 8.9 5.3 65 2.9 W 9 15 5 8 1023.8 1023.8 0.0
27/08:30am 10.7 8.1 5.9 72 2.2 W 9 15 5 8 1023.6 - 0.0
27/08:00am 8.1 5.5 5.9 86 1.0 W 9 13 5 7 1023.5 1023.5 0.0
27/07:30am 5.3 2.7 4.3 93 0.4 W 7 11 4 6 1023.2 - 0.0
27/07:00am 5.2 2.5 3.9 91 0.5 W 7 11 4 6 1023.0 1023.0 0.0
27/06:30am 6.0 3.0 4.3 89 0.7 W 9 13 5 7 1022.9 - 0.0
27/06:00am 5.5 2.5 4.3 92 0.5 W 9 13 5 7 1022.6 1022.6 0.0
27/05:30am 4.9 2.2 3.7 92 0.5 WNW 7 11 4 6 1022.3 - 0.0
27/05:00am 5.3 2.8 3.6 89 0.7 NW 6 7 3 4 1022.1 1022.1 0.0
27/04:30am 7.2 4.6 4.0 80 1.4 WNW 7 13 4 7 1022.1 - 0.0
27/04:00am 7.6 4.6 4.0 78 1.5 W 9 15 5 8 1022.0 1022.0 0.0
27/03:30am 8.7 5.4 4.3 74 1.9 W 11 17 6 9 1022.1 - 0.0
27/03:00am 8.9 5.6 4.5 74 1.9 W 11 19 6 10 1022.0 1022.0 0.0
27/02:30am 8.6 5.7 4.6 76 1.8 W 9 15 5 8 1021.9 - 0.0
27/02:00am 8.7 5.6 5.4 80 1.5 W 11 15 6 8 1022.2 1022.2 0.0
27/01:30am 8.5 5.9 6.0 84 1.1 W 9 15 5 8 1022.2 - 0.0
27/01:00am 7.9 5.4 6.4 90 0.7 W 9 13 5 7 1022.2 1022.2 0.0
27/12:30am 7.2 5.1 6.8 97 0.2 W 7 11 4 6 1022.4 - 0.0
27/12:00am 6.7 4.8 6.6 99 0.0 WSW 6 9 3 5 1022.5 1022.5 0.0
 
Date/Time
EST
Temp
°C
App
Temp
°C
Dew
Point
Rel
Hum
%
Delta-T
°C
Wind Press
QNH
hPa
Press
MSL
hPa
Rain
since 9 am
mm
Dir
 
Spd
km/h
Gust
km/h
Spd
kts
Gust
kts
26/11:30pm 6.8 6.0 6.5 98 0.1 CALM 0 0 0 0 1022.6 - 0.0
26/11:00pm 7.0 5.0 6.4 96 0.3 WSW 6 7 3 4 1022.6 1022.6 0.0
26/10:30pm 7.6 5.7 6.5 93 0.5 W 6 7 3 4 1022.5 - 0.0
26/10:00pm 8.8 7.2 6.4 85 1.1 WSW 4 9 2 5 1022.5 1022.5 0.0
26/09:30pm 9.4 7.4 7.3 87 1.0 W 7 9 4 5 1022.4 - 0.0
26/09:00pm 9.5 7.7 8.1 91 0.7 W 7 9 4 5 1022.4 1022.4 0.0
26/08:30pm 9.4 7.3 8.2 92 0.6 W 9 11 5 6 1022.4 - 0.0
26/08:00pm 10.1 8.4 8.4 89 0.8 WSW 7 11 4 6 1022.2 1022.2 0.0
26/07:30pm 9.8 7.8 8.6 92 0.6 WSW 9 11 5 6 1022.1 - 0.0
26/07:00pm 9.9 8.5 8.7 92 0.6 NW 6 9 3 5 1021.9 1021.9 0.0
26/06:30pm 10.0 8.9 8.6 91 0.7 SW 4 7 2 4 1021.6 - 0.0
26/06:00pm 10.5 9.0 8.6 88 0.9 NW 6 7 3 4 1021.2 1021.2 0.0
26/05:30pm 11.7 10.2 8.4 80 1.6 NW 6 9 3 5 1020.8 - 0.0
26/05:00pm 13.6 12.2 8.9 73 2.4 W 6 9 3 5 1020.5 1020.5 0.0
26/04:30pm 16.1 14.5 7.8 58 4.2 SSW 6 7 3 4 1020.4 - 0.0
26/04:00pm 16.1 14.3 7.1 55 4.4 WNW 6 9 3 5 1020.3 1020.3 0.0
26/03:30pm 16.6 14.5 6.7 52 4.9 WSW 7 11 4 6 1020.1 - 0.0
26/03:00pm 17.5 14.3 7.0 50 5.2 SSW 13 20 7 11 1020.2 1020.2 0.0
26/02:30pm 18.0 15.2 8.6 54 4.9 ESE 13 17 7 9 1019.6 - 0.0
26/02:00pm 19.3 16.8 8.3 49 5.7 SSE 11 17 6 9 1019.5 1019.5 0.0
26/01:30pm 19.9 16.3 4.8 37 7.3 S 13 20 7 11 1019.4 - 0.0
26/01:00pm 19.5 16.0 5.6 40 6.8 SW 13 20 7 11 1019.8 1019.8 0.0
26/12:30pm 18.7 16.7 7.2 47 5.8 SW 7 13 4 7 1020.4 - 0.0
26/12:00pm 17.9 15.1 7.0 49 5.4 WSW 11 19 6 10 1021.2 1021.2 0.0
26/11:30am 17.3 15.0 7.4 52 5.0 WNW 9 15 5 8 1021.5 - 0.0
26/11:00am 15.5 12.9 7.8 60 3.8 W 11 17 6 9 1022.0 1022.0 0.0
26/10:30am 14.2 11.2 7.5 64 3.3 WNW 13 20 7 11 1022.4 - 0.0
26/10:00am 13.3 10.6 7.5 68 2.8 W 11 19 6 10 1022.2 1022.2 0.0
26/09:30am 12.8 11.0 9.3 79 1.8 WSW 9 13 5 7 1022.7 - 0.0
26/09:00am 9.1 7.6 9.0 99 0.0 SSW 7 11 4 6 1022.6 1022.6 0.0
26/08:30am 4.6 3.4 4.5 99 0.0 CALM 0 2 0 1 1022.8 - 0.0
26/08:00am 4.6 1.3 4.5 99 0.0 NNW 11 15 6 8 1022.4 1022.4 0.0
26/07:30am 3.7 0.6 3.6 99 0.0 NNW 9 11 5 6 1022.0 - 0.0
26/07:00am 3.0 1.5 2.9 99 0.0 CALM 0 0 0 0 1021.7 1021.7 0.0
26/06:30am 3.2 1.7 3.1 99 0.0 CALM 0 0 0 0 1021.3 - 0.0
26/06:00am 3.5 0.7 3.4 99 0.0 NNW 7 9 4 5 1021.1 1021.1 0.0
26/05:30am 4.5 1.6 4.4 99 0.0 NW 9 11 5 6 1021.1 - 0.0
26/05:00am 4.3 1.7 4.2 99 0.0 N 7 11 4 6 1021.1 1021.1 0.0
26/04:30am 4.1 1.6 4.0 99 0.0 WSW 6 7 3 4 1020.9 - 0.0
26/04:00am 4.9 2.0 4.8 99 0.0 NNW 9 11 5 6 1021.0 1021.0 0.0
26/03:30am 5.2 3.0 5.1 99 0.0 NNW 6 9 3 5 1021.0 - 0.0
26/03:00am 5.0 3.9 4.9 99 0.0 CALM 0 0 0 0 1021.0 1021.0 0.0
26/02:30am 6.2 3.9 5.9 98 0.1 WSW 7 11 4 6 1021.1 - 0.0
26/02:00am 7.0 4.4 5.9 93 0.5 NW 9 11 5 6 1021.3 1021.3 0.0
26/01:30am 7.6 4.9 5.6 87 0.9 WNW 9 13 5 7 1021.3 - 0.0
26/01:00am 9.5 6.9 7.9 90 0.8 WNW 11 15 6 8 1021.3 1021.3 0.0
26/12:30am 6.9 4.3 6.2 95 0.3 WNW 9 11 5 6 1021.4 - 0.0
26/12:00am 7.2 5.2 6.1 93 0.5 WNW 6 7 3 4 1021.5 1021.5 0.0
 
Date/Time
EST
Temp
°C
App
Temp
°C
Dew
Point
Rel
Hum
%
Delta-T
°C
Wind Press
QNH
hPa
Press
MSL
hPa
Rain
since 9 am
mm
Dir
 
Spd
km/h
Gust
km/h
Spd
kts
Gust
kts
25/11:30pm 8.3 6.3 6.4 88 0.9 W 6 9 3 5 1021.6 - 0.0
25/11:00pm 10.5 8.3 7.9 84 1.3 W 9 13 5 7 1021.5 1021.5 0.0
25/10:30pm 8.7 6.6 6.7 87 0.9 WNW 7 11 4 6 1021.2 - 0.0
25/10:00pm 9.4 7.4 7.2 86 1.0 W 7 11 4 6 1021.1 1021.1 0.0
25/09:30pm 10.2 8.5 7.4 83 1.3 NNW 6 7 3 4 1021.0 - 0.0
25/09:00pm 11.3 9.2 6.8 74 2.1 WNW 7 11 4 6 1020.6 1020.6 0.0
25/08:30pm 15.2 13.1 6.5 56 4.2 WNW 7 11 4 6 1020.4 - 0.0

Other Formats:

Comma delimited format used in spreadsheet applications
http://www.bom.gov.au/fwo/IDN60801/IDN60801.95937.axf

JavaScript Object Notation format (JSON) in row-major order
http://www.bom.gov.au/fwo/IDN60801/IDN60801.95937.json